DAAT

Aguenar – Hadj Bey Akhamok Airport

Tamanrasset, Algeria
METAR DAAT 161030Z 20004KT 130V240 9999 SCT046 SCT100 22/M02 Q1022
Observed Flight Rules
Dec-16 @ 10:30 UTC (34 minutes ago) Visual Flight Rules
Wind Visibility Clouds
200° at 4 knots 10,000+ meters
  • Scattered at 4,600' AGL
  • Scattered at 10,000' AGL
Temperatures Readings
Current 22°C / 72°F
Dewpoint -2°C / 28°F
Humidity 20%
Altimeter 30.18" Hg
Pressure 1022 hPa
Elevation 1377
METAR DAAT 161030Z 20004KT 130V240 9999 SCT046 SCT100 22/M02 Q1022
Observed Flight Rules
Dec-16 @ 10:30 UTC
(34 minutes ago)
VFR
Wind Visibility
200° at 4 knots 10,000+ meters
Clouds
  • Scattered at 4,600' AGL
  • Scattered at 10,000' AGL
Temperature Dewpoint
22°C / 72°F -2°C / 28°F
Humidity Altimeter Pressure
20% 30.18" Hg 1022 hPa